Time;durP1;ratioP1;P1;durP2;ratioP2;P2;SDS_P1;SDS_P2;PMS_P1;PMS_P2;Temp;Humidity;BMP_temperature;BMP_pressure;BME280_temperature;BME280_humidity;BME280_pressure;Samples;Min_cycle;Max_cycle;Signal;HPM_P1;HPM_P2
2023/04/18 00:01:00;;;;;;;;;;;;;;;20.49;54.69;102246.34;5059192;28;2814;-63
2023/04/18 00:03:28;;;;;;;;;;;;;;;20.49;54.54;102249.22;5066201;28;2234;-63
2023/04/18 00:05:56;;;;;;;;;;;;;;;20.48;54.63;102245.59;5063960;28;2486;-63
2023/04/18 00:08:23;;;;;;;;;;;;;;;20.47;54.70;102249.84;5064529;28;3039;-62
2023/04/18 00:10:49;;;;;;;;;;;;;;;20.47;54.70;102249.84;5066319;28;2765;-62
2023/04/18 00:13:17;;;;;;;;;;;;;;;20.47;54.56;102254.84;5063147;28;2785;-62
2023/04/18 00:15:45;;;;;;;;;;;;;;;20.45;54.75;102246.81;5060548;28;2775;-62
2023/04/18 00:18:14;;;;;;;;;;;;;;;20.46;54.57;102248.34;5064084;28;2328;-63
2023/04/18 00:20:41;;;;;;;;;;;;;;;20.44;54.76;102250.31;5063726;28;2840;-63
2023/04/18 00:23:07;;;;;;;;;;;;;;;20.44;54.56;102251.06;5061530;28;2708;-63
2023/04/18 00:25:33;;;;;;;;;;;;;;;20.44;54.48;102251.06;5064705;28;2889;-63
2023/04/18 00:28:00;;;;;;;;;;;;;;;20.43;54.54;102249.56;5062624;28;2806;-62
2023/04/18 00:30:27;;;;;;;;;;;;;;;20.43;54.70;102248.81;5063906;28;2554;-63
2023/04/18 00:32:54;;;;;;;;;;;;;;;20.42;54.51;102248.06;5064759;28;2755;-63
2023/04/18 00:35:30;;;;;;;;;;;;;;;20.42;54.40;102259.56;5061028;28;2882;-63
2023/04/18 00:37:57;;;;;;;;;;;;;;;20.41;54.46;102251.53;5052983;28;2842;-63
2023/04/18 00:40:23;;;;;;;;;;;;;;;20.41;54.57;102255.19;5055432;28;2891;-63
2023/04/18 00:42:50;;;;;;;;;;;;;;;20.40;54.51;102256.53;5054186;28;3598;-63
2023/04/18 00:45:16;;;;;;;;;;;;;;;20.40;54.52;102256.53;5063216;28;2873;-63
2023/04/18 00:47:43;;;;;;;;;;;;;;;20.40;54.67;102252.91;5064533;28;2726;-63
2023/04/18 00:50:10;;;;;;;;;;;;;;;20.39;54.39;102255.03;5063691;28;2818;-63
2023/04/18 00:52:36;;;;;;;;;;;;;;;20.37;54.57;102257.78;5057504;28;2703;-63
2023/04/18 00:55:03;;;;;;;;;;;;;;;20.37;54.43;102254.91;5063226;28;2697;-63
2023/04/18 00:57:30;;;;;;;;;;;;;;;20.37;54.39;102257.78;5055065;28;2940;-63
2023/04/18 00:59:56;;;;;;;;;;;;;;;20.37;54.32;102257.78;5056302;28;3229;-63
2023/04/18 01:02:24;;;;;;;;;;;;;;;20.36;54.41;102256.25;5053168;28;2737;-63
2023/04/18 01:04:51;;;;;;;;;;;;;;;20.36;54.34;102262.00;5066195;28;2909;-63
2023/04/18 01:07:17;;;;;;;;;;;;;;;20.35;54.38;102260.53;5055428;28;2920;-63
2023/04/18 01:09:44;;;;;;;;;;;;;;;20.34;54.56;102256.16;5061443;28;2841;-63
2023/04/18 01:12:11;;;;;;;;;;;;;;;20.35;54.55;102259.78;5060166;28;2921;-63
2023/04/18 01:14:40;;;;;;;;;;;;;;;20.34;54.50;102258.25;5053224;28;3278;-63
2023/04/18 01:17:09;;;;;;;;;;;;;;;20.35;54.47;102254.00;5057479;28;2776;-63
2023/04/18 01:19:36;;;;;;;;;;;;;;;20.33;54.53;102254.63;5078698;28;2678;-63
2023/04/18 01:22:08;;;;;;;;;;;;;;;20.33;54.28;102251.75;5062764;28;2592;-63
2023/04/18 01:24:35;;;;;;;;;;;;;;;20.32;54.37;102256.00;5051668;28;3027;-63
2023/04/18 01:27:02;;;;;;;;;;;;;;;20.32;54.51;102261.75;5054813;28;2926;-63
2023/04/18 01:29:28;;;;;;;;;;;;;;;20.32;54.30;102263.84;5054212;28;2760;-63
2023/04/18 01:31:55;;;;;;;;;;;;;;;20.31;54.26;102263.09;5054421;28;2838;-63
2023/04/18 01:34:21;;;;;;;;;;;;;;;20.30;54.50;102259.47;5063932;28;2761;-64
2023/04/18 01:36:48;;;;;;;;;;;;;;;20.31;54.30;102254.47;5063039;28;2801;-63
2023/04/18 01:39:14;;;;;;;;;;;;;;;20.30;54.27;102253.72;5057840;28;2808;-63
2023/04/18 01:41:40;;;;;;;;;;;;;;;20.30;54.28;102258.75;5056070;28;2863;-64
2023/04/18 01:44:08;;;;;;;;;;;;;;;20.29;54.23;102258.00;5057700;28;2744;-63
2023/04/18 01:46:34;;;;;;;;;;;;;;;20.29;54.28;102252.25;5059069;28;2885;-64
2023/04/18 01:49:01;;;;;;;;;;;;;;;20.28;54.29;102261.47;5059482;28;2855;-63
2023/04/18 01:51:27;;;;;;;;;;;;;;;20.27;54.22;102254.97;5062710;28;2974;-63
2023/04/18 01:53:54;;;;;;;;;;;;;;;20.26;54.36;102255.56;5062804;28;2820;-63
2023/04/18 01:56:20;;;;;;;;;;;;;;;20.27;54.45;102260.72;5060106;28;2731;-64
2023/04/18 01:58:46;;;;;;;;;;;;;;;20.26;54.26;102253.44;5050778;28;2897;-63
2023/04/18 02:01:13;;;;;;;;;;;;;;;20.25;54.20;102256.97;5055115;28;2781;-64
2023/04/18 02:03:40;;;;;;;;;;;;;;;20.25;54.24;102257.69;5060719;28;3633;-63
2023/04/18 02:06:06;;;;;;;;;;;;;;;20.25;54.33;102251.94;5056711;28;2881;-63
2023/04/18 02:08:34;;;;;;;;;;;;;;;20.24;54.41;102250.44;5051602;28;2703;-63
2023/04/18 02:11:03;;;;;;;;;;;;;;;20.23;54.26;102243.19;5056181;28;2798;-64
2023/04/18 02:13:29;;;;;;;;;;;;;;;20.23;54.47;102245.31;5060351;28;2585;-63
2023/04/18 02:15:56;;;;;;;;;;;;;;;20.23;54.41;102248.19;5061750;28;2608;-63
2023/04/18 02:18:23;;;;;;;;;;;;;;;20.22;54.42;102246.66;5058065;28;2779;-63
2023/04/18 02:20:50;;;;;;;;;;;;;;;20.22;54.14;102243.78;5057391;28;2752;-63
2023/04/18 02:23:17;;;;;;;;;;;;;;;20.21;54.15;102240.16;5064278;28;2558;-63
2023/04/18 02:25:43;;;;;;;;;;;;;;;20.20;53.97;102241.53;5056247;28;2792;-64
2023/04/18 02:28:09;;;;;;;;;;;;;;;20.21;54.33;102250.91;5059237;28;2872;-64
2023/04/18 02:30:36;;;;;;;;;;;;;;;20.20;54.30;102244.41;5059305;28;2726;-64
2023/04/18 02:33:02;;;;;;;;;;;;;;;20.20;54.25;102243.63;5064048;28;2383;-64
2023/04/18 02:35:29;;;;;;;;;;;;;;;20.19;54.26;102242.16;5056578;28;2774;-65
2023/04/18 02:37:55;;;;;;;;;;;;;;;20.20;54.12;102243.63;5062940;28;3149;-64
2023/04/18 02:40:21;;;;;;;;;;;;;;;20.22;54.15;102249.53;5053532;28;2881;-65
2023/04/18 02:42:48;;;;;;;;;;;;;;;20.24;53.81;102246.81;5063156;28;2964;-64
2023/04/18 02:45:14;;;;;;;;;;;;;;;20.26;53.74;102258.44;5060813;28;2679;-64
2023/04/18 02:47:40;;;;;;;;;;;;;;;20.27;53.97;102248.44;5058279;28;2866;-64
2023/04/18 02:50:20;;;;;;;;;;;;;;;20.29;54.15;102251.47;5059874;28;2981;-64
2023/04/18 02:52:46;;;;;;;;;;;;;;;20.30;54.45;102253.72;5056053;28;2982;-64
2023/04/18 02:55:14;;;;;;;;;;;;;;;20.33;54.60;102256.75;5060132;28;2790;-64
2023/04/18 02:57:42;;;;;;;;;;;;;;;20.33;54.66;102251.75;5059750;28;2937;-64
2023/04/18 03:00:27;;;;;;;;;;;;;;;20.34;54.61;102259.03;5055000;28;2927;-64
2023/04/18 03:10:38;;;;;;;;;;;;;;;20.35;54.83;102266.28;5049361;28;2828;-64
2023/04/18 03:13:05;;;;;;;;;;;;;;;20.36;54.64;102262.00;5059052;28;3170;-64
2023/04/18 03:15:32;;;;;;;;;;;;;;;20.37;54.70;102260.66;5051500;28;2957;-64
2023/04/18 03:17:59;;;;;;;;;;;;;;;20.38;54.78;102267.91;5058488;28;2856;-64
2023/04/18 03:20:29;;;;;;;;;;;;;;;20.39;54.74;102260.81;5059531;28;2836;-64
2023/04/18 03:22:55;;;;;;;;;;;;;;;20.40;54.87;102267.31;5061970;28;2766;-64
2023/04/18 03:25:24;;;;;;;;;;;;;;;20.42;54.87;102273.94;5074613;28;2837;-64
2023/04/18 03:27:51;;;;;;;;;;;;;;;20.42;54.62;102273.19;5060621;28;2732;-64
2023/04/18 03:30:20;;;;;;;;;;;;;;;20.42;54.77;102267.44;5052983;28;2814;-64
2023/04/18 03:32:52;;;;;;;;;;;;;;;20.41;54.82;102263.81;5056344;28;2882;-64
2023/04/18 03:35:19;;;;;;;;;;;;;;;20.41;54.85;102269.56;5060300;28;2918;-64
2023/04/18 03:37:45;;;;;;;;;;;;;;;20.40;54.84;102273.81;5061346;28;2630;-64
2023/04/18 03:40:18;;;;;;;;;;;;;;;20.40;54.63;102273.81;5056960;28;2706;-64
2023/04/18 03:42:47;;;;;;;;;;;;;;;20.40;54.54;102270.94;5061683;28;2660;-64
2023/04/18 03:45:14;;;;;;;;;;;;;;;20.41;54.85;102268.78;5061311;28;2734;-63
2023/04/18 03:47:42;;;;;;;;;;;;;;;20.43;54.59;102268.94;5055401;28;2814;-64
2023/04/18 03:50:09;;;;;;;;;;;;;;;20.43;54.62;102275.47;5059233;28;2908;-63
2023/04/18 03:52:36;;;;;;;;;;;;;;;20.43;54.57;102272.59;5057127;28;2916;-64
2023/04/18 03:55:03;;;;;;;;;;;;;;;20.44;54.69;102276.97;5058158;28;2604;-64
2023/04/18 03:57:32;;;;;;;;;;;;;;;20.44;54.64;102279.84;5056848;28;2863;-64
2023/04/18 04:00:00;;;;;;;;;;;;;;;20.46;54.42;102282.13;5053807;28;2901;-64
2023/04/18 04:02:29;;;;;;;;;;;;;;;20.46;54.66;102282.13;5062436;28;2759;-64
2023/04/18 04:04:56;;;;;;;;;;;;;;;20.46;54.59;102282.88;5058792;28;2792;-64
2023/04/18 04:07:22;;;;;;;;;;;;;;;20.47;54.71;102284.38;5056020;28;2836;-64
2023/04/18 04:09:49;;;;;;;;;;;;;;;20.45;54.58;102278.47;5061363;28;2780;-64
2023/04/18 04:12:15;;;;;;;;;;;;;;;20.44;54.54;102274.09;5055768;28;2662;-64
2023/04/18 04:14:42;;;;;;;;;;;;;;;20.44;54.71;102282.72;5063544;28;2750;-64
2023/04/18 04:17:08;;;;;;;;;;;;;;;20.44;54.56;102282.72;5076710;28;2883;-64
2023/04/18 04:19:36;;;;;;;;;;;;;;;20.45;54.60;102280.59;5059267;28;2889;-64
2023/04/18 04:22:12;;;;;;;;;;;;;;;20.44;54.73;102297.09;5059959;28;2896;-64
2023/04/18 04:24:40;;;;;;;;;;;;;;;20.47;54.58;102290.13;5058845;28;2888;-64
2023/04/18 04:27:07;;;;;;;;;;;;;;;20.47;54.55;102289.38;5081816;28;2757;-64
2023/04/18 04:29:37;;;;;;;;;;;;;;;20.49;54.49;102298.91;5061167;28;2869;-64
2023/04/18 04:32:04;;;;;;;;;;;;;;;20.50;54.56;102302.50;5056295;28;2864;-64
2023/04/18 04:34:35;;;;;;;;;;;;;;;20.49;54.54;102304.66;5076458;27;3104;-64
2023/04/18 04:37:04;;;;;;;;;;;;;;;20.49;54.49;102301.78;5062445;28;2750;-64
2023/04/18 04:39:36;;;;;;;;;;;;;;;20.49;54.53;102304.66;5062343;28;2869;-64
2023/04/18 04:42:30;;;;;;;;;;;;;;;20.48;54.57;102308.91;5074908;28;3113;-64
2023/04/18 04:45:08;;;;;;;;;;;;;;;20.49;54.55;102310.41;5062902;28;2786;-64
2023/04/18 04:47:35;;;;;;;;;;;;;;;20.47;54.58;102301.63;5064788;28;3221;-64
2023/04/18 04:50:03;;;;;;;;;;;;;;;20.47;54.50;102301.63;5078986;28;2793;-64
2023/04/18 04:52:31;;;;;;;;;;;;;;;20.47;54.53;102310.25;5078527;28;2905;-64
2023/04/18 04:54:57;;;;;;;;;;;;;;;20.48;54.40;102303.16;5065495;28;3219;-64
2023/04/18 04:57:25;;;;;;;;;;;;;;;20.48;54.63;102306.03;5077913;28;2641;-64
2023/04/18 04:59:51;;;;;;;;;;;;;;;20.49;54.30;102307.53;5060770;28;2890;-64
2023/04/18 05:02:21;;;;;;;;;;;;;;;20.50;54.64;102311.94;5075841;28;3182;-64
2023/04/18 05:04:48;;;;;;;;;;;;;;;20.51;54.40;102306.91;5060915;28;2743;-64
2023/04/18 05:07:14;;;;;;;;;;;;;;;20.51;54.70;102312.69;5062129;28;2747;-64
2023/04/18 05:09:41;;;;;;;;;;;;;;;20.53;54.65;102320.69;5062440;28;2947;-64
2023/04/18 05:12:07;;;;;;;;;;;;;;;20.51;54.41;102312.69;5062704;28;2720;-64
2023/04/18 05:14:33;;;;;;;;;;;;;;;20.50;54.39;102311.94;5064596;28;2840;-63
2023/04/18 05:17:00;;;;;;;;;;;;;;;20.51;54.28;102306.91;5059927;28;2956;-64
2023/04/18 05:19:26;;;;;;;;;;;;;;;20.51;54.47;102312.69;5063216;28;2676;-63
2023/04/18 05:21:52;;;;;;;;;;;;;;;20.50;54.53;102306.16;5057332;28;2895;-64
2023/04/18 05:24:19;;;;;;;;;;;;;;;20.51;54.50;102318.44;5064987;28;3232;-65
2023/04/18 05:26:45;;;;;;;;;;;;;;;20.50;54.35;102311.94;5060682;28;2786;-65
2023/04/18 05:29:12;;;;;;;;;;;;;;;20.50;54.54;102320.56;5063692;28;2917;-64
2023/04/18 05:31:38;;;;;;;;;;;;;;;20.51;54.42;102319.19;5063852;28;2801;-64
2023/04/18 05:34:04;;;;;;;;;;;;;;;20.54;54.83;102319.31;5065831;28;2327;-64
2023/04/18 05:36:31;;;;;;;;;;;;;;;20.54;55.40;102322.19;5062198;28;2912;-64
2023/04/18 05:38:57;;;;;;;;;;;;;;;20.55;55.11;102323.69;5057448;28;2870;-63
2023/04/18 05:41:23;;;;;;;;;;;;;;;20.52;54.78;102314.16;5063119;28;2705;-63
2023/04/18 05:43:50;;;;;;;;;;;;;;;20.53;54.84;102320.69;5064488;28;2656;-64
2023/04/18 05:46:30;;;;;;;;;;;;;;;19.49;50.52;102328.44;5062525;28;2845;-64
2023/04/18 05:48:57;;;;;;;;;;;;;;;16.59;52.03;102342.16;5059966;28;2719;-62
2023/04/18 05:51:23;;;;;;;;;;;;;;;15.46;53.10;102343.75;5062456;28;2859;-61
2023/04/18 05:53:49;;;;;;;;;;;;;;;16.00;52.79;102337.06;5064710;28;2730;-62
2023/04/18 05:56:16;;;;;;;;;;;;;;;15.60;51.59;102343.50;5055354;28;2801;-61
2023/04/18 05:58:44;;;;;;;;;;;;;;;15.34;51.97;102345.50;5060786;28;2789;-68
2023/04/18 06:01:13;;;;;;;;;;;;;;;14.86;51.56;102336.88;5045948;28;2814;-62
2023/04/18 06:03:40;;;;;;;;;;;;;;;16.91;50.28;102337.69;5056301;28;2626;-62
2023/04/18 06:06:06;;;;;;;;;;;;;;;18.59;48.98;102334.69;5061504;28;2677;-63
2023/04/18 06:08:33;;;;;;;;;;;;;;;19.14;48.36;102329.50;5049718;28;2670;-62
2023/04/18 06:10:59;;;;;;;;;;;;;;;19.33;48.63;102317.25;5059595;28;2574;-62
2023/04/18 06:13:26;;;;;;;;;;;;;;;19.50;49.07;102324.22;5060138;28;2542;-62
2023/04/18 06:15:52;;;;;;;;;;;;;;;19.54;49.62;102325.25;5057261;28;2854;-62
2023/04/18 06:18:18;;;;;;;;;;;;;;;19.62;49.94;102331.59;5052875;28;2982;-63
2023/04/18 06:20:45;;;;;;;;;;;;;;;19.69;50.22;102329.19;5057769;28;2984;-63
2023/04/18 06:23:11;;;;;;;;;;;;;;;19.70;50.62;102334.34;5061785;28;2964;-63
2023/04/18 06:25:39;;;;;;;;;;;;;;;19.81;51.04;102339.47;5056967;28;2976;-63
2023/04/18 06:28:06;;;;;;;;;;;;;;;19.87;51.38;102339.13;5058793;28;3353;-63
2023/04/18 06:30:32;;;;;;;;;;;;;;;19.92;51.70;102332.31;5063528;28;2626;-72
2023/04/18 06:32:58;;;;;;;;;;;;;;;20.00;51.84;102346.53;5064516;28;2757;-64
2023/04/18 06:35:25;;;;;;;;;;;;;;;19.98;52.05;102343.50;5065697;28;2713;-68
2023/04/18 06:37:52;;;;;;;;;;;;;;;19.32;48.49;102343.72;5053540;28;2746;-63
2023/04/18 06:40:18;;;;;;;;;;;;;;;19.36;51.15;102338.28;5056856;28;2750;-63
2023/04/18 06:42:44;;;;;;;;;;;;;;;19.66;52.19;102337.63;5057451;28;2807;-65
2023/04/18 06:45:11;;;;;;;;;;;;;;;19.81;52.03;102341.56;5060343;28;2800;-64
2023/04/18 06:47:37;;;;;;;;;;;;;;;19.80;52.07;102342.94;5065078;28;2669;-66
2023/04/18 06:50:04;;;;;;;;;;;;;;;19.95;52.02;102338.94;5063039;28;2894;-64
2023/04/18 06:52:31;;;;;;;;;;;;;;;19.99;51.86;102345.75;5061618;28;2653;-64
2023/04/18 06:54:57;;;;;;;;;;;;;;;19.63;51.67;102349.56;5058843;28;2660;-65
2023/04/18 06:57:24;;;;;;;;;;;;;;;19.73;52.64;102355.34;5051305;28;2656;-64
2023/04/18 06:59:51;;;;;;;;;;;;;;;19.75;52.52;102355.50;5061490;28;2974;-63
2023/04/18 07:02:17;;;;;;;;;;;;;;;19.83;52.58;102350.34;5056144;28;2676;-64
2023/04/18 07:04:44;;;;;;;;;;;;;;;19.91;52.28;102345.19;5045103;28;2656;-64
2023/04/18 07:07:10;;;;;;;;;;;;;;;20.01;52.14;102348.78;5059316;28;2751;-65
2023/04/18 07:09:37;;;;;;;;;;;;;;;20.04;52.29;102341.03;5066140;28;2576;-65
2023/04/18 07:12:03;;;;;;;;;;;;;;;20.04;52.24;102347.56;5053989;28;2689;-65
2023/04/18 07:14:29;;;;;;;;;;;;;;;20.06;52.47;102341.94;5058782;28;2998;-64
2023/04/18 07:16:59;;;;;;;;;;;;;;;20.12;52.84;102340.88;5057601;28;2919;-65
2023/04/18 07:19:26;;;;;;;;;;;;;;;19.49;50.27;102351.41;5057057;28;3308;-64
2023/04/18 07:21:53;;;;;;;;;;;;;;;19.34;53.26;102350.38;5065654;28;2696;-65
2023/04/18 07:24:22;;;;;;;;;;;;;;;19.82;52.38;102345.97;5064246;28;2657;-69
2023/04/18 07:26:49;;;;;;;;;;;;;;;19.98;52.18;102352.88;5058190;28;3095;-70
2023/04/18 07:29:20;;;;;;;;;;;;;;;20.04;52.23;102353.31;5063095;28;2756;-70
2023/04/18 07:31:46;;;;;;;;;;;;;;;19.99;52.50;102356.50;5060775;28;3364;-70
2023/04/18 07:34:13;;;;;;;;;;;;;;;20.03;52.23;102345.28;5069102;28;2813;-70
2023/04/18 07:36:40;;;;;;;;;;;;;;;20.04;52.10;102350.44;5065823;28;2580;-71
2023/04/18 07:39:06;;;;;;;;;;;;;;;20.13;51.99;102336.63;5064030;28;2679;-70
2023/04/18 07:41:33;;;;;;;;;;;;;;;20.16;51.86;102353.44;5068311;28;2628;-71
2023/04/18 07:43:59;;;;;;;;;;;;;;;20.21;51.93;102345.84;5064720;28;2629;-70
2023/04/18 07:46:26;;;;;;;;;;;;;;;20.25;51.92;102349.75;5065322;28;2740;-70
2023/04/18 07:48:52;;;;;;;;;;;;;;;20.29;52.03;102337.75;5065450;28;2704;-70
2023/04/18 07:51:19;;;;;;;;;;;;;;;20.31;52.06;102349.41;5066204;28;2473;-69
2023/04/18 07:53:45;;;;;;;;;;;;;;;20.33;52.12;102349.56;5068081;28;1628;-70
2023/04/18 07:56:13;;;;;;;;;;;;;;;20.35;52.25;102358.34;5067262;28;2617;-70
2023/04/18 07:58:39;;;;;;;;;;;;;;;20.37;52.55;102352.72;5069043;28;1666;-70
2023/04/18 08:01:06;;;;;;;;;;;;;;;20.40;52.67;102360.13;5062838;28;2581;-70
2023/04/18 08:03:34;;;;;;;;;;;;;;;20.39;52.68;102352.13;5064073;28;2608;-70
2023/04/18 08:06:01;;;;;;;;;;;;;;;20.40;52.73;102360.13;5067097;28;2815;-69
2023/04/18 08:08:27;;;;;;;;;;;;;;;20.42;52.84;102363.16;5065691;28;2601;-70
2023/04/18 08:10:54;;;;;;;;;;;;;;;20.43;53.13;102369.66;5061130;28;2669;-70
2023/04/18 08:13:20;;;;;;;;;;;;;;;20.44;53.10;102366.16;5067874;28;1691;-70
2023/04/18 08:15:47;;;;;;;;;;;;;;;20.44;53.17;102354.66;5066136;28;2539;-69
2023/04/18 08:18:13;;;;;;;;;;;;;;;20.43;53.27;102364.66;5067797;28;1961;-69
2023/04/18 08:20:40;;;;;;;;;;;;;;;20.45;53.35;102364.78;5063497;28;2771;-70
2023/04/18 08:23:07;;;;;;;;;;;;;;;20.44;53.43;102360.41;5064337;28;2604;-70
2023/04/18 08:25:38;;;;;;;;;;;;;;;20.48;53.38;102363.59;5065845;28;2605;-69
2023/04/18 08:28:04;;;;;;;;;;;;;;;20.46;53.30;102363.44;5067312;28;2971;-69
2023/04/18 08:30:30;;;;;;;;;;;;;;;20.48;53.29;102366.47;5066702;28;2605;-69
2023/04/18 08:32:58;;;;;;;;;;;;;;;20.48;53.58;102366.47;5062549;28;2798;-70
2023/04/18 08:35:24;;;;;;;;;;;;;;;20.49;53.45;102356.44;5061756;28;2992;-69
2023/04/18 08:37:51;;;;;;;;;;;;;;;20.48;53.44;102359.97;5060769;28;2664;-70
2023/04/18 08:40:17;;;;;;;;;;;;;;;20.47;53.51;102358.44;5060443;28;3006;-70
2023/04/18 08:42:44;;;;;;;;;;;;;;;20.48;53.50;102360.72;5064706;28;2939;-69
2023/04/18 08:45:13;;;;;;;;;;;;;;;20.47;53.66;102364.94;5064159;28;2676;-69
2023/04/18 08:47:42;;;;;;;;;;;;;;;20.49;53.80;102358.56;5063160;28;2557;-69
2023/04/18 08:50:08;;;;;;;;;;;;;;;20.47;53.63;102362.06;5065739;28;2703;-70
2023/04/18 08:52:36;;;;;;;;;;;;;;;20.47;53.76;102359.19;5065727;28;2982;-70
2023/04/18 08:55:03;;;;;;;;;;;;;;;20.47;53.88;102364.94;5056894;28;2780;-69
2023/04/18 08:57:30;;;;;;;;;;;;;;;20.46;53.74;102363.44;5059479;28;2744;-69
2023/04/18 08:59:56;;;;;;;;;;;;;;;20.45;54.00;102353.28;5059889;28;2677;-69
2023/04/18 09:02:33;;;;;;;;;;;;;;;20.46;54.09;102357.69;5061413;28;2987;-70
2023/04/18 09:05:01;;;;;;;;;;;;;;;20.45;53.97;102355.41;5062014;28;2609;-70
2023/04/18 09:07:27;;;;;;;;;;;;;;;20.44;54.17;102359.66;5042289;28;2819;-70
2023/04/18 09:09:55;;;;;;;;;;;;;;;20.46;54.03;102368.44;5060309;28;2748;-70
2023/04/18 09:12:22;;;;;;;;;;;;;;;20.45;53.98;102367.66;5063928;28;2626;-70
2023/04/18 09:14:50;;;;;;;;;;;;;;;20.44;54.19;102369.06;5058869;28;2844;-69
2023/04/18 09:17:32;;;;;;;;;;;;;;;20.44;54.09;102363.28;5063745;28;2754;-70
2023/04/18 09:19:58;;;;;;;;;;;;;;;20.44;54.05;102363.28;5063436;28;2599;-69
2023/04/18 09:22:25;;;;;;;;;;;;;;;20.45;53.99;102356.16;5059037;28;2668;-69
2023/04/18 09:24:52;;;;;;;;;;;;;;;20.44;54.10;102363.28;5065299;28;3010;-69
2023/04/18 09:27:21;;;;;;;;;;;;;;;20.46;54.25;102368.44;5061476;28;2545;-70
2023/04/18 09:29:48;;;;;;;;;;;;;;;20.46;54.24;102360.56;5062546;28;2634;-69
2023/04/18 09:32:18;;;;;;;;;;;;;;;20.47;54.23;102362.06;5062277;28;2568;-70
2023/04/18 09:34:45;;;;;;;;;;;;;;;20.48;53.93;102357.81;5062466;28;2696;-69
2023/04/18 09:37:12;;;;;;;;;;;;;;;20.50;54.08;102357.19;5063001;28;2657;-70
2023/04/18 09:39:39;;;;;;;;;;;;;;;20.53;54.11;102358.13;5063880;28;2618;-69
2023/04/18 09:42:06;;;;;;;;;;;;;;;20.52;53.88;102371.72;5063826;28;2597;-69
2023/04/18 09:44:33;;;;;;;;;;;;;;;20.55;54.10;102364.00;5056208;28;2863;-69
2023/04/18 09:46:59;;;;;;;;;;;;;;;20.51;54.14;102359.47;5059364;28;2625;-69
2023/04/18 09:49:25;;;;;;;;;;;;;;;20.53;53.96;102372.50;5064004;28;3001;-69
2023/04/18 09:51:52;;;;;;;;;;;;;;;20.55;54.14;102364.75;5067625;28;1949;-69
2023/04/18 09:54:21;;;;;;;;;;;;;;;20.55;54.08;102352.47;5063328;28;2545;-70
2023/04/18 09:56:52;;;;;;;;;;;;;;;20.55;54.27;102352.47;5061132;28;2866;-69
2023/04/18 09:59:28;;;;;;;;;;;;;;;20.54;54.18;102350.97;5067114;28;1727;-70
2023/04/18 10:01:54;;;;;;;;;;;;;;;20.56;54.00;102349.03;5055265;28;2676;-70
2023/04/18 10:04:21;;;;;;;;;;;;;;;20.59;54.16;102347.03;5058869;28;2669;-70
2023/04/18 10:06:47;;;;;;;;;;;;;;;20.58;54.00;102354.19;5066101;28;1657;-69
2023/04/18 10:09:14;;;;;;;;;;;;;;;20.56;54.18;102351.13;5067199;28;1735;-70
2023/04/18 10:11:41;;;;;;;;;;;;;;;20.58;54.13;102351.28;5059199;28;2700;-70
2023/04/18 10:14:09;;;;;;;;;;;;;;;20.59;54.09;102344.94;5059433;28;2879;-69
2023/04/18 10:16:36;;;;;;;;;;;;;;;20.60;54.02;102348.56;5064684;28;2606;-70
2023/04/18 10:19:21;;;;;;;;;;;;;;;20.61;54.12;102347.19;5065722;28;2321;-69
2023/04/18 10:21:54;;;;;;;;;;;;;;;20.61;54.10;102355.81;5061486;28;2645;-70
2023/04/18 10:24:39;;;;;;;;;;;;;;;20.60;54.05;102348.56;5060892;28;2670;-69
2023/04/18 10:27:06;;;;;;;;;;;;;;;20.62;54.11;102342.94;5061441;28;2602;-69
2023/04/18 10:29:45;;;;;;;;;;;;;;;20.63;53.80;102347.31;5065808;28;1912;-70
2023/04/18 10:32:11;;;;;;;;;;;;;;;20.63;54.15;102341.56;5060691;28;2637;-69
2023/04/18 10:34:37;;;;;;;;;;;;;;;20.61;53.89;102347.19;5065359;28;1711;-70
2023/04/18 10:37:04;;;;;;;;;;;;;;;20.61;53.96;102338.53;5057077;28;2683;-70
2023/04/18 10:39:30;;;;;;;;;;;;;;;20.61;53.89;102338.53;5064464;28;2443;-70
2023/04/18 10:41:57;;;;;;;;;;;;;;;20.63;54.04;102338.69;5058955;28;1853;-70
2023/04/18 10:44:23;;;;;;;;;;;;;;;20.63;53.92;102338.69;5056749;28;1779;-69
2023/04/18 10:46:50;;;;;;;;;;;;;;;20.64;53.92;102331.56;5062541;28;2629;-70
2023/04/18 10:49:16;;;;;;;;;;;;;;;20.62;54.01;102329.31;5065633;28;1738;-70
2023/04/18 10:51:43;;;;;;;;;;;;;;;20.63;53.82;102335.81;5064803;28;1910;-70
2023/04/18 10:54:10;;;;;;;;;;;;;;;20.64;53.96;102337.34;5065717;28;1994;-70
2023/04/18 10:56:36;;;;;;;;;;;;;;;20.64;54.01;102332.31;5061452;28;2614;-69
2023/04/18 10:59:03;;;;;;;;;;;;;;;20.62;53.93;102334.31;5063966;28;2612;-70
2023/04/18 11:01:29;;;;;;;;;;;;;;;20.64;54.00;102334.44;5064813;28;2641;-70
2023/04/18 11:03:58;;;;;;;;;;;;;;;20.64;54.03;102338.09;5066042;28;1913;-69
2023/04/18 11:06:26;;;;;;;;;;;;;;;20.63;53.96;102336.56;5065905;28;1528;-70
2023/04/18 11:09:08;;;;;;;;;;;;;;;20.64;53.88;102340.22;5063388;28;2757;-70
2023/04/18 11:11:35;;;;;;;;;;;;;;;20.63;53.85;102347.31;5059837;28;2638;-69
2023/04/18 11:14:01;;;;;;;;;;;;;;;20.64;53.87;102343.09;5062329;28;2605;-70
2023/04/18 11:16:28;;;;;;;;;;;;;;;20.64;53.91;102332.31;5063659;28;2711;-66
2023/04/18 11:18:54;;;;;;;;;;;;;;;20.63;54.01;102342.31;5065754;28;2732;-82
2023/04/18 11:21:23;;;;;;;;;;;;;;;20.63;54.01;102338.69;5070095;28;1655;-67
2023/04/18 11:23:50;;;;;;;;;;;;;;;20.63;53.75;102335.81;5069557;28;1643;-67
2023/04/18 11:26:18;;;;;;;;;;;;;;;20.66;53.66;102334.56;5056245;28;2680;-67
2023/04/18 11:28:49;;;;;;;;;;;;;;;20.64;53.81;102335.19;5062125;28;2791;-67
2023/04/18 11:31:16;;;;;;;;;;;;;;;20.65;53.81;102327.31;5068185;28;1914;-67
2023/04/18 11:33:45;;;;;;;;;;;;;;;20.65;53.61;102333.06;5067996;28;1885;-67
2023/04/18 11:36:11;;;;;;;;;;;;;;;20.65;53.57;102325.19;5069033;28;1894;-67
2023/04/18 11:38:38;;;;;;;;;;;;;;;20.66;53.57;102329.59;5065084;28;2644;-67
2023/04/18 11:41:04;;;;;;;;;;;;;;;20.66;53.57;102323.06;5061583;28;2601;-67
2023/04/18 11:43:31;;;;;;;;;;;;;;;20.67;53.41;102330.34;5058620;28;2807;-66
2023/04/18 11:45:57;;;;;;;;;;;;;;;20.66;53.37;102331.69;5068730;28;1917;-67
2023/04/18 11:48:53;;;;;;;;;;;;;;;20.68;53.55;102331.84;5063716;28;2703;-67
2023/04/18 11:51:33;;;;;;;;;;;;;;;20.70;53.37;102329.09;5054815;28;2559;-69
2023/04/18 11:53:59;;;;;;;;;;;;;;;20.66;53.37;102323.06;5066152;28;2586;-69
2023/04/18 11:56:25;;;;;;;;;;;;;;;20.67;53.48;102324.59;5068353;28;1600;-69
2023/04/18 11:58:52;;;;;;;;;;;;;;;20.66;53.26;102323.06;5068560;28;1619;-69
2023/04/18 12:01:18;;;;;;;;;;;;;;;20.67;53.49;102324.59;5063148;28;2671;-68
2023/04/18 12:04:01;;;;;;;;;;;;;;;20.67;53.51;102328.19;5068326;28;2263;-68
2023/04/18 12:06:44;;;;;;;;;;;;;;;20.67;53.49;102319.56;5064430;28;2628;-70
2023/04/18 12:09:14;;;;;;;;;;;;;;;20.67;53.67;102315.94;5063600;28;2738;-69
2023/04/18 12:11:40;;;;;;;;;;;;;;;20.68;53.67;102320.31;5062984;28;2840;-69
2023/04/18 12:14:17;;;;;;;;;;;;;;;20.65;53.66;102330.19;5068258;28;1838;-69
2023/04/18 12:16:43;;;;;;;;;;;;;;;20.64;53.38;102323.69;5068151;28;1720;-69
2023/04/18 12:19:10;;;;;;;;;;;;;;;20.66;53.44;102318.06;5067219;28;2672;-69
2023/04/18 12:21:44;;;;;;;;;;;;;;;20.65;53.63;102322.31;5058801;28;2637;-68
2023/04/18 12:24:14;;;;;;;;;;;;;;;20.65;53.62;102322.31;5055952;28;2736;-68
2023/04/18 12:26:44;;;;;;;;;;;;;;;20.64;53.42;102326.56;5066880;28;2219;-68
2023/04/18 12:29:10;;;;;;;;;;;;;;;20.67;53.39;102321.69;5066257;28;2557;-68
2023/04/18 12:31:37;;;;;;;;;;;;;;;20.65;53.76;102318.69;5066688;28;2807;-68
2023/04/18 12:34:04;;;;;;;;;;;;;;;20.64;53.71;102315.06;5066437;28;1675;-68
2023/04/18 12:36:30;;;;;;;;;;;;;;;20.65;53.70;102310.03;5062695;28;2622;-69
2023/04/18 12:38:56;;;;;;;;;;;;;;;20.65;53.51;102307.16;5068035;28;1663;-68
2023/04/18 12:41:23;;;;;;;;;;;;;;;20.66;53.40;102311.53;5060396;28;2675;-68
2023/04/18 12:43:49;;;;;;;;;;;;;;;20.65;53.51;102315.81;5066694;28;2973;-69
2023/04/18 12:46:15;;;;;;;;;;;;;;;20.65;53.60;102310.78;5068705;28;1779;-68
2023/04/18 12:48:42;;;;;;;;;;;;;;;20.66;53.59;102312.31;5067958;28;1655;-68
2023/04/18 12:51:08;;;;;;;;;;;;;;;20.64;53.68;102312.19;5067329;28;1648;-68
2023/04/18 12:53:35;;;;;;;;;;;;;;;20.65;53.67;102312.91;5062856;28;2699;-68
2023/04/18 12:56:01;;;;;;;;;;;;;;;20.64;53.42;102315.06;5068092;28;2350;-68
2023/04/18 12:58:27;;;;;;;;;;;;;;;20.68;53.56;102314.56;5064462;28;2738;-68